Time;durP1;ratioP1;P1;durP2;ratioP2;P2;SDS_P1;SDS_P2;PMS_P1;PMS_P2;Temp;Humidity;BMP_temperature;BMP_pressure;BME280_temperature;BME280_humidity;BME280_pressure;Samples;Min_cycle;Max_cycle;Signal;HPM_P1;HPM_P2
2023/09/13 00:00:15;;;;;;;24.13;16.10;;;18.80;99.90;;;;;;4977207;28;20042;-64
2023/09/13 00:02:41;;;;;;;22.63;14.95;;;18.80;99.90;;;;;;4977433;28;20578;-64
2023/09/13 00:05:08;;;;;;;22.38;15.38;;;18.80;99.90;;;;;;4993392;28;20046;-65
2023/09/13 00:07:35;;;;;;;22.60;14.68;;;18.80;99.90;;;;;;4993240;28;20630;-65
2023/09/13 00:10:01;;;;;;;26.35;14.18;;;18.80;99.90;;;;;;4976301;28;20042;-64
2023/09/13 00:12:27;;;;;;;25.77;13.32;;;18.80;99.90;;;;;;4976636;28;20430;-64
2023/09/13 00:14:52;;;;;;;24.00;12.85;;;18.80;99.90;;;;;;4976765;28;20442;-65
2023/09/13 00:17:21;;;;;;;18.45;12.15;;;18.80;99.90;;;;;;4993180;28;20065;-66
2023/09/13 00:19:47;;;;;;;23.88;13.50;;;18.80;99.90;;;;;;4976983;28;20127;-64
2023/09/13 00:22:12;;;;;;;23.63;12.98;;;18.80;99.90;;;;;;4976862;28;20126;-64
2023/09/13 00:24:38;;;;;;;25.13;14.15;;;18.70;99.90;;;;;;4993040;28;20096;-64
2023/09/13 00:27:05;;;;;;;25.92;13.05;;;18.70;99.90;;;;;;4993186;28;20048;-65
2023/09/13 00:29:33;;;;;;;25.83;13.48;;;18.70;99.90;;;;;;4992760;28;20092;-64
2023/09/13 00:32:03;;;;;;;21.92;12.70;;;18.70;99.90;;;;;;4993864;28;20134;-64
2023/09/13 00:34:30;;;;;;;24.17;13.00;;;18.70;99.90;;;;;;4992794;28;20046;-65
2023/09/13 00:36:55;;;;;;;20.67;12.52;;;18.70;99.90;;;;;;4976874;28;20418;-65
2023/09/13 00:39:21;;;;;;;20.25;11.32;;;18.70;99.90;;;;;;4994318;28;20042;-64
2023/09/13 00:41:47;;;;;;;16.75;12.00;;;18.60;99.90;;;;;;4976660;28;20130;-65
2023/09/13 00:44:13;;;;;;;20.23;12.43;;;18.60;99.90;;;;;;4976371;28;20046;-65
2023/09/13 00:46:39;;;;;;;23.38;11.65;;;18.60;99.90;;;;;;4992836;28;20096;-64
2023/09/13 00:49:06;;;;;;;19.60;11.70;;;18.60;99.90;;;;;;4992708;28;20061;-65
2023/09/13 00:51:31;;;;;;;21.90;11.27;;;18.60;99.90;;;;;;4976972;28;20046;-72
2023/09/13 00:53:58;;;;;;;18.73;10.07;;;18.60;99.90;;;;;;4992711;28;20053;-71
2023/09/13 00:56:25;;;;;;;18.17;9.68;;;18.60;99.90;;;;;;4993920;28;20034;-71
2023/09/13 00:58:51;;;;;;;18.23;10.02;;;18.50;99.90;;;;;;4960991;28;20051;-72
2023/09/13 01:01:17;;;;;;;19.90;9.40;;;18.60;99.90;;;;;;4994952;28;20474;-73
2023/09/13 01:03:43;;;;;;;17.00;9.25;;;18.60;99.90;;;;;;4993061;28;20049;-73
2023/09/13 01:06:10;;;;;;;22.23;10.40;;;18.50;99.90;;;;;;4977178;28;20050;-71
2023/09/13 01:08:41;;;;;;;17.27;8.35;;;18.50;99.90;;;;;;4992890;28;20050;-71
2023/09/13 01:11:08;;;;;;;17.13;8.25;;;18.50;99.90;;;;;;4992918;28;20057;-72
2023/09/13 01:13:34;;;;;;;17.00;7.60;;;18.50;99.90;;;;;;4993153;28;20093;-71
2023/09/13 01:16:25;;;;;;;16.25;7.97;;;18.40;99.90;;;;;;4992726;28;20057;-72
2023/09/13 01:19:20;;;;;;;14.10;7.15;;;18.40;99.90;;;;;;4993247;28;20566;-72
2023/09/13 01:21:49;;;;;;;13.07;6.88;;;18.40;99.90;;;;;;5002373;28;20089;-72
2023/09/13 01:24:39;;;;;;;15.07;6.43;;;18.30;99.90;;;;;;4996442;28;20042;-71
2023/09/13 01:27:36;;;;;;;13.50;6.38;;;18.30;99.90;;;;;;4997514;28;20050;-70
2023/09/13 01:30:04;;;;;;;15.30;6.53;;;18.30;99.90;;;;;;4996462;28;20074;-70
2023/09/13 01:32:32;;;;;;;14.93;6.15;;;18.30;99.90;;;;;;4996712;28;20059;-71
2023/09/13 01:34:58;;;;;;;12.60;6.20;;;18.20;99.90;;;;;;4999346;28;20054;-72
2023/09/13 01:37:25;;;;;;;15.38;6.97;;;18.20;99.90;;;;;;4997904;28;20402;-73
2023/09/13 01:39:51;;;;;;;14.07;5.97;;;18.20;99.90;;;;;;4999868;28;20049;-73
2023/09/13 01:42:21;;;;;;;14.27;6.07;;;18.20;99.90;;;;;;5000255;28;20470;-72
2023/09/13 01:44:47;;;;;;;13.63;6.38;;;18.20;99.90;;;;;;5014072;28;20136;-72
2023/09/13 01:47:15;;;;;;;11.75;5.45;;;18.10;99.90;;;;;;5013459;28;20113;-70
2023/09/13 01:49:43;;;;;;;10.52;5.10;;;18.10;99.90;;;;;;4979970;28;20034;-71
2023/09/13 01:52:08;;;;;;;13.38;6.07;;;18.10;99.90;;;;;;4996330;28;20546;-70
2023/09/13 01:54:35;;;;;;;11.93;5.30;;;18.00;99.90;;;;;;5012526;28;20046;-70
2023/09/13 01:57:02;;;;;;;15.70;5.05;;;18.00;99.90;;;;;;4995976;28;20038;-73
2023/09/13 01:59:28;;;;;;;10.00;4.50;;;18.00;99.90;;;;;;4996308;28;20125;-73
2023/09/13 02:01:53;;;;;;;12.63;3.72;;;18.00;99.90;;;;;;4996361;28;20126;-71
2023/09/13 02:04:19;;;;;;;10.70;4.03;;;18.00;99.90;;;;;;4996419;28;20093;-72
2023/09/13 02:06:45;;;;;;;10.65;3.72;;;17.90;99.90;;;;;;4980192;28;20084;-72
2023/09/13 02:09:11;;;;;;;10.27;3.60;;;17.90;99.90;;;;;;4996104;28;20046;-72
2023/09/13 02:11:37;;;;;;;10.65;4.03;;;17.80;99.90;;;;;;4964039;28;20144;-72
2023/09/13 02:14:03;;;;;;;12.35;4.07;;;17.80;99.90;;;;;;4996160;28;20049;-74
2023/09/13 02:16:28;;;;;;;12.40;3.63;;;17.80;99.90;;;;;;5012228;28;20117;-71
2023/09/13 02:18:54;;;;;;;9.63;3.80;;;17.80;99.90;;;;;;4995896;28;20505;-70
2023/09/13 02:21:20;;;;;;;11.98;3.90;;;17.70;99.90;;;;;;4995776;28;20057;-71
2023/09/13 02:23:46;;;;;;;12.38;3.78;;;17.70;99.90;;;;;;4997140;28;20038;-71
2023/09/13 02:26:20;;;;;;;11.57;4.10;;;17.70;99.90;;;;;;4995747;28;20118;-71
2023/09/13 02:28:46;;;;;;;11.00;3.88;;;17.70;99.90;;;;;;4979470;28;20078;-72
2023/09/13 02:31:12;;;;;;;15.85;4.15;;;17.70;99.90;;;;;;4995352;28;20518;-71
2023/09/13 02:33:38;;;;;;;11.60;4.20;;;17.60;99.90;;;;;;4994775;28;20073;-71
2023/09/13 02:36:04;;;;;;;13.15;3.97;;;17.60;99.90;;;;;;4979277;28;20078;-71
2023/09/13 02:38:29;;;;;;;13.45;4.28;;;17.60;99.90;;;;;;4995438;28;20085;-72
2023/09/13 02:40:55;;;;;;;10.68;3.67;;;17.60;99.90;;;;;;5012002;28;20052;-71
2023/09/13 02:43:21;;;;;;;11.43;4.35;;;17.50;99.90;;;;;;4995997;28;20042;-71
2023/09/13 02:45:47;;;;;;;13.15;4.40;;;17.50;99.90;;;;;;4995854;28;20104;-72
2023/09/13 02:48:12;;;;;;;13.27;4.60;;;17.50;99.90;;;;;;4995429;28;20038;-73
2023/09/13 02:50:41;;;;;;;11.57;4.20;;;17.40;99.90;;;;;;4995496;28;20046;-72
2023/09/13 02:53:07;;;;;;;13.27;4.70;;;17.40;99.90;;;;;;4995077;28;20070;-72
2023/09/13 02:55:33;;;;;;;10.77;4.53;;;17.40;99.90;;;;;;4995076;28;20069;-74
2023/09/13 02:57:58;;;;;;;10.10;3.83;;;17.40;99.90;;;;;;4995131;28;20038;-72
2023/09/13 03:00:24;;;;;;;12.68;4.38;;;17.30;99.90;;;;;;4978660;28;20125;-72
2023/09/13 03:02:50;;;;;;;9.82;4.03;;;17.30;99.90;;;;;;4994779;28;20088;-71
2023/09/13 03:05:16;;;;;;;15.00;4.47;;;17.30;99.90;;;;;;4994749;28;20046;-72
2023/09/13 03:07:42;;;;;;;10.85;3.88;;;17.30;99.90;;;;;;4994747;28;20046;-71
2023/09/13 03:10:08;;;;;;;11.80;4.40;;;17.30;99.90;;;;;;4996284;28;20364;-72
2023/09/13 03:12:34;;;;;;;13.65;5.35;;;17.20;99.90;;;;;;4994224;28;20056;-65
2023/09/13 03:15:00;;;;;;;12.48;5.05;;;17.20;99.90;;;;;;4978222;28;20042;-65
2023/09/13 03:17:25;;;;;;;12.25;4.72;;;17.20;99.90;;;;;;4993993;28;20141;-65
2023/09/13 03:19:51;;;;;;;13.43;5.07;;;17.20;99.90;;;;;;4978028;28;20045;-64
2023/09/13 03:22:19;;;;;;;10.68;4.18;;;17.20;99.90;;;;;;4994445;28;20039;-65
2023/09/13 03:24:45;;;;;;;12.05;4.53;;;17.20;99.90;;;;;;4993981;28;20054;-65
2023/09/13 03:27:10;;;;;;;11.73;4.65;;;17.20;99.90;;;;;;4994091;28;20387;-66
2023/09/13 03:29:36;;;;;;;11.27;4.50;;;17.20;99.90;;;;;;4994341;28;20039;-65
2023/09/13 03:32:03;;;;;;;12.30;4.45;;;17.20;99.90;;;;;;4993834;28;20050;-65
2023/09/13 03:34:29;;;;;;;12.45;4.75;;;17.20;99.90;;;;;;4993600;28;20115;-67
2023/09/13 03:36:54;;;;;;;12.65;4.10;;;17.20;99.90;;;;;;4993766;28;20070;-65
2023/09/13 03:39:20;;;;;;;10.02;3.78;;;17.30;99.90;;;;;;4994678;28;20138;-65
2023/09/13 03:41:46;;;;;;;12.75;4.18;;;17.30;99.90;;;;;;5010022;28;20049;-65
2023/09/13 03:44:12;;;;;;;11.48;4.50;;;17.20;99.90;;;;;;4977299;28;20046;-65
2023/09/13 03:46:38;;;;;;;12.52;4.30;;;17.30;99.90;;;;;;4993627;28;20073;-65
2023/09/13 03:49:04;;;;;;;14.02;4.10;;;17.30;99.90;;;;;;4993559;28;20050;-66
2023/09/13 03:51:29;;;;;;;10.13;3.97;;;17.30;99.90;;;;;;4977571;28;20047;-64
2023/09/13 03:53:58;;;;;;;12.55;4.50;;;17.20;99.90;;;;;;4977134;28;20050;-65
2023/09/13 03:56:23;;;;;;;11.57;4.15;;;17.30;99.90;;;;;;4994839;28;20038;-65
2023/09/13 03:58:49;;;;;;;12.68;4.53;;;17.30;99.90;;;;;;4977294;28;20042;-65
2023/09/13 04:01:15;;;;;;;10.75;4.30;;;17.20;99.90;;;;;;5009639;28;20414;-65
2023/09/13 04:03:41;;;;;;;10.80;4.50;;;17.20;99.90;;;;;;4976953;28;20410;-65
2023/09/13 04:06:07;;;;;;;10.75;4.07;;;17.20;99.90;;;;;;4993239;28;20129;-65
2023/09/13 04:08:32;;;;;;;9.95;4.07;;;17.20;99.90;;;;;;4994254;28;20072;-65
2023/09/13 04:10:58;;;;;;;10.02;4.18;;;17.30;99.90;;;;;;4993279;28;20038;-64
2023/09/13 04:13:24;;;;;;;12.35;4.80;;;17.20;99.90;;;;;;4994418;28;20089;-64
2023/09/13 04:15:50;;;;;;;10.95;4.43;;;17.20;99.90;;;;;;4993148;28;20575;-65
2023/09/13 04:18:16;;;;;;;11.63;4.43;;;17.20;99.90;;;;;;5009778;28;20034;-65
2023/09/13 04:20:43;;;;;;;12.65;4.72;;;17.20;99.90;;;;;;4977426;28;20102;-72
2023/09/13 04:23:09;;;;;;;12.63;4.72;;;17.10;99.90;;;;;;5009624;28;20096;-72
2023/09/13 04:25:36;;;;;;;13.50;5.15;;;17.00;99.90;;;;;;4994457;28;20066;-71
2023/09/13 04:28:01;;;;;;;11.70;4.63;;;17.00;99.90;;;;;;4977071;28;20108;-72
2023/09/13 04:30:27;;;;;;;11.20;4.40;;;17.00;99.90;;;;;;4960784;28;20129;-72
2023/09/13 04:32:53;;;;;;;12.32;4.60;;;17.00;99.90;;;;;;4976920;28;20092;-71
2023/09/13 04:35:19;;;;;;;11.70;4.20;;;17.00;99.90;;;;;;4976663;28;20129;-70
2023/09/13 04:37:45;;;;;;;12.60;4.10;;;17.00;99.90;;;;;;4992876;28;20057;-72
2023/09/13 04:40:11;;;;;;;11.30;4.45;;;17.00;99.90;;;;;;4960290;28;20085;-71
2023/09/13 04:42:40;;;;;;;15.00;5.35;;;17.00;99.90;;;;;;4992736;28;20046;-71
2023/09/13 04:45:07;;;;;;;11.90;4.63;;;16.90;99.90;;;;;;5009507;28;20058;-71
2023/09/13 04:47:32;;;;;;;12.43;5.43;;;16.90;99.90;;;;;;5009157;28;20049;-71
2023/09/13 04:49:58;;;;;;;12.48;5.40;;;16.90;99.90;;;;;;4992799;28;20078;-71
2023/09/13 04:52:24;;;;;;;10.70;4.65;;;16.90;99.90;;;;;;4992945;28;20046;-71
2023/09/13 04:54:50;;;;;;;10.13;4.10;;;16.90;99.90;;;;;;4992682;28;20108;-71
2023/09/13 04:57:15;;;;;;;11.32;4.40;;;16.90;99.90;;;;;;4976025;28;20379;-72
2023/09/13 04:59:48;;;;;;;11.57;4.53;;;16.90;99.90;;;;;;4993066;28;20042;-71
2023/09/13 05:02:14;;;;;;;11.35;3.88;;;17.00;99.90;;;;;;4992626;28;20053;-71
2023/09/13 05:04:40;;;;;;;10.85;4.65;;;16.90;99.90;;;;;;4992612;28;20049;-70
2023/09/13 05:07:07;;;;;;;12.93;4.32;;;16.90;99.90;;;;;;4992659;28;20096;-71
2023/09/13 05:09:37;;;;;;;11.82;4.85;;;16.90;99.90;;;;;;4960422;28;20042;-71
2023/09/13 05:12:02;;;;;;;12.18;5.05;;;16.80;99.90;;;;;;5009123;28;20053;-72
2023/09/13 05:14:28;;;;;;;11.02;4.75;;;16.80;99.90;;;;;;4992526;28;20038;-72
2023/09/13 05:16:54;;;;;;;12.93;4.45;;;16.80;99.90;;;;;;4994175;28;20042;-73
2023/09/13 05:19:20;;;;;;;12.02;4.25;;;16.80;99.90;;;;;;4976875;28;20053;-73
2023/09/13 05:21:46;;;;;;;15.05;4.70;;;16.70;99.90;;;;;;4976442;28;20479;-72
2023/09/13 05:24:15;;;;;;;13.15;4.00;;;16.80;99.90;;;;;;4993927;28;20453;-72
2023/09/13 05:26:41;;;;;;;12.00;3.80;;;16.80;99.90;;;;;;4992926;28;20498;-71
2023/09/13 05:29:07;;;;;;;15.10;4.20;;;16.80;99.90;;;;;;4992564;28;20165;-72
2023/09/13 05:31:33;;;;;;;11.68;3.53;;;16.70;99.90;;;;;;4993924;28;20038;-65
2023/09/13 05:33:58;;;;;;;13.57;3.42;;;16.70;99.90;;;;;;4992027;28;20049;-65
2023/09/13 05:36:24;;;;;;;11.07;3.40;;;16.70;99.90;;;;;;4975986;28;20043;-63
2023/09/13 05:38:50;;;;;;;9.95;3.25;;;16.60;99.90;;;;;;5008536;28;20054;-63
2023/09/13 05:41:16;;;;;;;12.93;3.22;;;16.60;99.90;;;;;;4992292;28;20081;-64
2023/09/13 05:43:43;;;;;;;10.63;3.30;;;16.60;99.90;;;;;;4976051;28;20510;-65
2023/09/13 05:46:09;;;;;;;9.05;3.00;;;16.50;99.90;;;;;;4976222;28;20525;-65
2023/09/13 05:48:35;;;;;;;11.68;2.80;;;16.40;99.90;;;;;;4992315;28;20402;-64
2023/09/13 05:51:02;;;;;;;11.05;2.55;;;16.40;99.90;;;;;;4992029;28;20046;-65
2023/09/13 05:53:29;;;;;;;9.85;2.47;;;16.30;99.90;;;;;;4992210;28;20042;-63
2023/09/13 05:55:58;;;;;;;9.25;2.50;;;16.20;99.90;;;;;;4976247;28;20613;-65
2023/09/13 05:58:31;;;;;;;11.15;2.60;;;16.10;99.90;;;;;;4992076;28;20035;-65
2023/09/13 06:00:57;;;;;;;15.43;2.80;;;16.00;99.90;;;;;;4992152;28;20050;-65
2023/09/13 06:03:23;;;;;;;11.20;2.42;;;15.90;99.90;;;;;;4975829;28;20069;-65
2023/09/13 06:05:50;;;;;;;10.85;2.72;;;15.80;99.90;;;;;;4993465;28;20046;-65
2023/09/13 06:08:17;;;;;;;13.43;2.55;;;15.70;99.90;;;;;;4992173;28;20120;-66
2023/09/13 06:10:44;;;;;;;10.80;2.40;;;15.60;99.90;;;;;;4995532;28;20042;-66
2023/09/13 06:13:10;;;;;;;10.23;2.47;;;15.50;99.90;;;;;;4995342;28;20141;-65
2023/09/13 06:15:35;;;;;;;12.35;2.75;;;15.40;99.90;;;;;;4995276;28;20047;-65
2023/09/13 06:18:01;;;;;;;10.65;2.80;;;15.30;99.90;;;;;;5011856;28;20506;-65
2023/09/13 06:20:27;;;;;;;10.60;2.78;;;15.20;99.90;;;;;;4979522;28;20038;-65
2023/09/13 06:22:54;;;;;;;9.43;2.78;;;15.10;99.90;;;;;;4996759;28;20061;-65
2023/09/13 06:25:20;;;;;;;11.55;2.85;;;15.10;99.90;;;;;;4996387;28;20056;-65
2023/09/13 06:27:46;;;;;;;12.07;3.00;;;15.00;99.90;;;;;;4995360;28;20129;-65
2023/09/13 06:30:14;;;;;;;10.68;2.90;;;15.00;99.90;;;;;;4995253;28;20046;-65
2023/09/13 06:32:50;;;;;;;9.32;2.90;;;15.00;99.90;;;;;;4995572;28;20495;-65
2023/09/13 06:35:15;;;;;;;9.95;2.85;;;15.00;99.90;;;;;;4995171;28;20042;-65
2023/09/13 06:37:42;;;;;;;13.07;3.28;;;14.90;99.90;;;;;;4954242;28;20045;-65
2023/09/13 06:40:11;;;;;;;8.93;3.05;;;14.90;99.90;;;;;;4994872;28;20057;-65
2023/09/13 06:42:37;;;;;;;12.13;3.10;;;14.80;99.90;;;;;;4979966;28;20046;-70
2023/09/13 06:45:03;;;;;;;9.95;2.60;;;14.80;99.90;;;;;;4962929;28;20406;-71
2023/09/13 06:47:30;;;;;;;9.43;2.80;;;14.80;99.90;;;;;;4994985;28;20038;-70
2023/09/13 06:49:56;;;;;;;10.15;2.90;;;14.80;99.90;;;;;;4979185;28;20087;-70
2023/09/13 06:52:25;;;;;;;11.18;3.22;;;14.80;99.90;;;;;;5011150;28;20054;-69
2023/09/13 06:54:51;;;;;;;10.05;2.90;;;14.80;99.90;;;;;;4978885;28;20042;-70
2023/09/13 06:57:17;;;;;;;9.43;2.80;;;14.70;99.90;;;;;;4995191;28;20081;-71
2023/09/13 06:59:42;;;;;;;9.60;2.80;;;14.70;99.90;;;;;;4994780;28;20157;-70
2023/09/13 07:02:23;;;;;;;8.70;2.40;;;14.70;99.90;;;;;;4996277;28;20040;-71
2023/09/13 07:04:57;;;;;;;8.73;2.65;;;14.70;99.90;;;;;;4996711;28;20042;-70
2023/09/13 07:07:23;;;;;;;6.85;2.28;;;14.70;99.90;;;;;;4979038;28;20517;-71
2023/09/13 07:09:49;;;;;;;7.65;2.30;;;14.60;99.90;;;;;;4979755;28;20050;-70
2023/09/13 07:12:14;;;;;;;7.68;2.40;;;14.60;99.90;;;;;;4963303;28;20047;-70
2023/09/13 07:14:40;;;;;;;7.68;2.13;;;14.70;99.90;;;;;;4996441;28;20050;-70
2023/09/13 07:17:06;;;;;;;6.90;2.17;;;14.60;99.90;;;;;;5011329;28;20045;-71
2023/09/13 07:19:34;;;;;;;8.90;2.40;;;14.60;99.90;;;;;;4994658;28;20518;-69
2023/09/13 07:22:03;;;;;;;8.25;2.60;;;14.60;99.90;;;;;;4996891;28;20050;-69
2023/09/13 07:24:29;;;;;;;8.65;2.70;;;14.60;99.90;;;;;;4979099;28;20050;-70
2023/09/13 07:26:55;;;;;;;8.82;2.70;;;14.50;99.90;;;;;;4995510;28;20398;-71
2023/09/13 07:29:21;;;;;;;8.57;2.83;;;14.50;99.90;;;;;;4995300;28;20042;-70
2023/09/13 07:31:49;;;;;;;8.85;3.00;;;14.50;99.90;;;;;;4978151;28;20045;-66
2023/09/13 07:34:16;;;;;;;9.52;2.88;;;14.50;99.90;;;;;;4977833;28;20091;-66
2023/09/13 07:36:45;;;;;;;9.98;2.92;;;14.50;99.90;;;;;;4995524;28;20049;-66
2023/09/13 07:39:11;;;;;;;7.95;2.85;;;14.50;99.90;;;;;;4977581;28;20066;-65
2023/09/13 07:41:37;;;;;;;10.15;2.90;;;14.50;99.90;;;;;;4995187;28;20046;-71
2023/09/13 07:44:06;;;;;;;9.27;3.20;;;14.60;99.90;;;;;;4978933;28;20065;-71
2023/09/13 07:46:35;;;;;;;10.32;3.30;;;14.60;99.90;;;;;;4978859;28;20042;-71
2023/09/13 07:49:01;;;;;;;11.13;2.97;;;14.60;99.90;;;;;;4995135;28;20034;-70
2023/09/13 07:51:27;;;;;;;10.02;3.17;;;14.60;99.90;;;;;;4994179;28;20042;-65
2023/09/13 07:54:03;;;;;;;10.85;3.38;;;14.60;99.90;;;;;;4993474;28;20097;-65
2023/09/13 07:56:30;;;;;;;10.18;3.33;;;14.60;99.90;;;;;;4994864;28;20078;-65
2023/09/13 07:58:56;;;;;;;8.80;3.20;;;14.60;99.90;;;;;;4994630;28;20039;-65
2023/09/13 08:01:22;;;;;;;10.38;3.47;;;14.60;99.90;;;;;;4977158;28;20060;-65
2023/09/13 08:03:48;;;;;;;11.15;3.60;;;14.60;99.90;;;;;;4993581;28;20038;-65
2023/09/13 08:06:14;;;;;;;10.80;3.40;;;14.60;99.90;;;;;;4977434;28;20038;-65
2023/09/13 08:08:39;;;;;;;10.02;3.17;;;14.60;99.90;;;;;;4993300;28;20057;-65
2023/09/13 08:11:05;;;;;;;11.77;3.65;;;14.60;99.90;;;;;;4993177;28;20050;-65
2023/09/13 08:13:31;;;;;;;11.48;3.60;;;14.70;99.90;;;;;;4977096;28;20043;-65
2023/09/13 08:15:58;;;;;;;14.85;3.80;;;14.70;99.90;;;;;;4977219;28;20049;-65
2023/09/13 08:18:24;;;;;;;12.07;3.70;;;14.80;99.90;;;;;;4994145;28;20043;-64
2023/09/13 08:20:50;;;;;;;9.05;3.30;;;14.90;99.90;;;;;;5009679;28;20478;-65
2023/09/13 08:23:16;;;;;;;11.45;3.88;;;15.00;99.90;;;;;;5009934;28;20030;-63
2023/09/13 08:25:42;;;;;;;12.43;4.00;;;15.10;99.90;;;;;;4976963;28;20046;-64
2023/09/13 08:28:09;;;;;;;11.98;3.97;;;15.10;99.90;;;;;;4976836;28;20124;-66
2023/09/13 08:30:35;;;;;;;12.60;4.05;;;15.10;99.90;;;;;;5009273;28;20057;-65
2023/09/13 08:33:01;;;;;;;11.85;4.00;;;15.10;99.90;;;;;;4991984;28;20042;-64
2023/09/13 08:35:27;;;;;;;10.68;3.63;;;15.20;99.90;;;;;;4960542;28;20469;-65
2023/09/13 08:37:52;;;;;;;10.77;3.70;;;15.20;99.90;;;;;;4992406;28;20465;-65
2023/09/13 08:40:18;;;;;;;13.20;3.70;;;15.10;99.90;;;;;;4992556;28;20137;-65
2023/09/13 08:42:45;;;;;;;10.85;4.00;;;15.10;99.90;;;;;;4994100;28;20491;-65
2023/09/13 08:45:13;;;;;;;10.25;3.67;;;15.10;99.90;;;;;;5009696;28;20073;-65
2023/09/13 08:47:42;;;;;;;14.38;4.00;;;15.20;99.90;;;;;;4993086;28;20046;-66
2023/09/13 08:50:09;;;;;;;11.30;3.50;;;15.20;99.90;;;;;;4993977;28;20038;-66
2023/09/13 08:52:38;;;;;;;10.95;3.50;;;15.30;99.90;;;;;;4976462;28;20085;-66
2023/09/13 08:55:09;;;;;;;10.55;3.80;;;15.30;99.90;;;;;;4992894;28;20137;-65
2023/09/13 08:57:36;;;;;;;10.60;3.63;;;15.30;99.90;;;;;;4992596;28;20042;-65
2023/09/13 09:00:02;;;;;;;8.80;3.38;;;15.30;99.90;;;;;;4993783;28;20042;-66
2023/09/13 09:02:31;;;;;;;8.15;3.88;;;15.40;99.90;;;;;;4998771;28;20039;-72
2023/09/13 09:04:59;;;;;;;9.57;3.55;;;15.40;99.90;;;;;;4981587;28;20042;-71
2023/09/13 09:07:26;;;;;;;11.45;3.95;;;15.50;99.90;;;;;;4980630;28;20089;-71
2023/09/13 09:09:53;;;;;;;9.02;3.55;;;15.50;99.90;;;;;;4995592;28;20053;-72
2023/09/13 09:12:21;;;;;;;9.88;3.70;;;15.50;99.90;;;;;;4995550;28;20109;-72
2023/09/13 09:14:50;;;;;;;8.82;3.65;;;15.50;99.90;;;;;;5012954;28;20085;-72
2023/09/13 09:17:17;;;;;;;11.07;3.50;;;15.70;99.90;;;;;;4996749;28;20042;-72
2023/09/13 09:19:43;;;;;;;10.18;3.63;;;15.80;99.90;;;;;;4995551;28;20077;-71
2023/09/13 09:22:11;;;;;;;8.55;3.30;;;16.00;99.90;;;;;;4980017;28;20049;-70
2023/09/13 09:24:39;;;;;;;8.82;3.22;;;16.30;99.90;;;;;;4996138;28;20129;-71
2023/09/13 09:27:05;;;;;;;10.40;3.67;;;16.60;99.90;;;;;;5012887;28;20042;-71
2023/09/13 09:29:39;;;;;;;9.88;3.75;;;16.70;99.90;;;;;;4980163;28;20196;-71
2023/09/13 09:32:08;;;;;;;10.60;3.65;;;16.90;99.90;;;;;;4979513;28;20081;-72
2023/09/13 09:34:41;;;;;;;11.55;3.63;;;17.10;99.90;;;;;;4997003;28;20060;-71
2023/09/13 09:37:08;;;;;;;10.65;3.60;;;17.20;99.90;;;;;;4995888;28;20057;-72
2023/09/13 09:39:40;;;;;;;9.88;3.30;;;17.40;99.90;;;;;;4979988;28;20095;-71
2023/09/13 09:42:06;;;;;;;9.02;3.15;;;17.50;99.90;;;;;;4997298;28;20046;-71
2023/09/13 09:44:32;;;;;;;10.88;3.45;;;17.50;99.90;;;;;;5002600;28;20053;-72
2023/09/13 09:46:58;;;;;;;9.40;3.10;;;17.30;99.90;;;;;;5002066;28;20158;-70
2023/09/13 09:49:27;;;;;;;10.13;2.92;;;17.30;99.90;;;;;;5016058;28;20108;-72
2023/09/13 09:51:53;;;;;;;8.88;3.08;;;17.30;99.90;;;;;;4998410;28;20049;-70
2023/09/13 09:54:19;;;;;;;9.73;3.13;;;17.40;99.90;;;;;;4999315;28;20093;-70
2023/09/13 09:56:46;;;;;;;9.57;2.60;;;17.30;99.90;;;;;;4999094;28;20068;-74
2023/09/13 09:59:12;;;;;;;9.10;2.55;;;17.20;99.90;;;;;;5014455;28;20125;-71
2023/09/13 10:01:38;;;;;;;8.93;2.63;;;17.10;99.90;;;;;;4998157;28;20050;-71
2023/09/13 10:04:11;;;;;;;7.32;2.60;;;17.10;99.90;;;;;;4997808;28;20050;-71
2023/09/13 10:06:54;;;;;;;7.80;2.67;;;17.40;99.90;;;;;;4998832;28;20039;-71
2023/09/13 10:09:20;;;;;;;8.02;2.53;;;17.70;99.90;;;;;;4981562;28;20046;-72
2023/09/13 10:11:46;;;;;;;10.55;2.53;;;17.90;99.90;;;;;;4998024;28;20578;-71
2023/09/13 10:14:27;;;;;;;9.35;2.58;;;17.90;99.90;;;;;;4996742;28;20084;-71
2023/09/13 10:17:04;;;;;;;10.43;3.17;;;17.80;99.90;;;;;;4996567;28;20149;-72
2023/09/13 10:19:30;;;;;;;11.85;3.00;;;17.60;99.90;;;;;;4979775;28;20039;-71
2023/09/13 10:21:57;;;;;;;11.48;3.08;;;17.60;99.90;;;;;;4996478;28;20044;-71
2023/09/13 10:24:28;;;;;;;9.98;3.10;;;17.50;99.90;;;;;;4997514;28;20049;-71
2023/09/13 10:26:57;;;;;;;12.30;3.40;;;17.40;99.90;;;;;;4996093;28;20046;-71
2023/09/13 10:29:31;;;;;;;9.02;2.95;;;17.30;99.90;;;;;;4995718;28;20053;-71
2023/09/13 10:32:02;;;;;;;10.45;2.83;;;17.60;99.90;;;;;;4997243;28;20491;-72
2023/09/13 10:34:33;;;;;;;10.15;2.88;;;17.90;99.90;;;;;;4979160;28;20571;-71
2023/09/13 10:37:11;;;;;;;10.07;2.63;;;18.20;99.90;;;;;;4995532;28;20042;-72
2023/09/13 10:40:10;;;;;;;8.80;2.58;;;18.60;99.90;;;;;;4995071;28;20125;-71
2023/09/13 10:42:40;;;;;;;10.10;2.95;;;18.70;99.90;;;;;;4995770;28;20049;-71
2023/09/13 10:45:17;;;;;;;9.27;2.67;;;18.50;99.90;;;;;;4994980;28;20042;-70
2023/09/13 10:47:43;;;;;;;11.60;2.72;;;18.30;99.90;;;;;;5011490;28;20046;-72
2023/09/13 10:50:09;;;;;;;9.90;3.00;;;17.70;99.90;;;;;;4996297;28;20052;-71
2023/09/13 10:52:36;;;;;;;9.57;2.85;;;17.30;99.90;;;;;;4978679;28;20133;-64
2023/09/13 10:55:06;;;;;;;8.43;2.72;;;17.10;99.90;;;;;;4993820;28;20042;-63
2023/09/13 10:57:34;;;;;;;9.15;2.85;;;17.00;99.90;;;;;;4994858;28;20534;-64
2023/09/13 11:00:00;;;;;;;8.93;2.85;;;16.80;99.90;;;;;;4994558;28;20038;-63
2023/09/13 11:02:27;;;;;;;9.93;2.70;;;16.70;99.90;;;;;;4978618;28;20551;-63
2023/09/13 11:04:59;;;;;;;9.68;2.72;;;16.50;99.90;;;;;;4995884;28;20045;-64
2023/09/13 11:07:25;;;;;;;9.07;2.80;;;16.50;99.90;;;;;;5011054;28;20038;-63
2023/09/13 11:10:04;;;;;;;10.38;2.92;;;16.40;99.90;;;;;;4994481;28;20109;-64
2023/09/13 11:12:35;;;;;;;9.25;2.63;;;16.40;99.90;;;;;;5010694;28;20129;-64
2023/09/13 11:15:14;;;;;;;9.10;2.60;;;16.40;99.90;;;;;;4977980;28;20053;-64
2023/09/13 11:17:41;;;;;;;10.73;2.83;;;16.50;99.90;;;;;;4978078;28;20050;-64
2023/09/13 11:20:34;;;;;;;8.73;2.65;;;16.60;99.90;;;;;;4995348;28;20391;-63
2023/09/13 11:23:12;;;;;;;8.50;2.72;;;16.70;99.90;;;;;;4995592;28;20125;-63
2023/09/13 11:25:40;;;;;;;9.75;3.00;;;16.90;99.90;;;;;;4995267;28;20046;-64
2023/09/13 11:28:08;;;;;;;9.13;2.88;;;17.00;99.90;;;;;;4995138;28;20038;-64
2023/09/13 11:30:50;;;;;;;8.90;2.83;;;17.20;99.90;;;;;;4993889;28;20089;-64
2023/09/13 11:33:23;;;;;;;10.32;3.17;;;17.40;99.90;;;;;;4994876;28;20046;-64
2023/09/13 11:35:51;;;;;;;9.55;2.90;;;17.50;99.90;;;;;;4993840;28;20042;-64
2023/09/13 11:38:17;;;;;;;10.02;3.10;;;17.50;99.90;;;;;;4977618;28;20044;-64
2023/09/13 11:40:50;;;;;;;10.40;3.00;;;17.60;99.90;;;;;;4993636;28;20052;-64
2023/09/13 11:43:26;;;;;;;11.30;3.15;;;17.60;99.90;;;;;;4995177;28;20044;-64
2023/09/13 11:45:57;;;;;;;9.52;2.70;;;17.60;99.90;;;;;;4977573;28;20048;-64
2023/09/13 11:48:26;;;;;;;9.82;2.80;;;17.60;99.90;;;;;;4994771;28;20046;-64
2023/09/13 11:50:52;;;;;;;8.13;2.65;;;17.70;99.90;;;;;;4995017;28;20053;-64
2023/09/13 11:53:34;;;;;;;9.38;2.78;;;17.90;99.90;;;;;;4993422;28;20045;-63
2023/09/13 11:56:02;;;;;;;11.20;2.67;;;18.20;99.90;;;;;;4962109;28;20542;-63
2023/09/13 11:58:38;;;;;;;9.13;2.90;;;18.40;99.90;;;;;;4993637;28;20050;-64
2023/09/13 12:01:07;;;;;;;10.82;2.78;;;18.50;99.90;;;;;;4993633;28;20054;-64
2023/09/13 12:03:39;;;;;;;10.23;3.00;;;18.70;99.90;;;;;;4994987;28;20089;-63
2023/09/13 12:06:06;;;;;;;10.82;3.10;;;18.80;99.90;;;;;;4994432;28;20049;-64
2023/09/13 12:08:36;;;;;;;9.60;2.65;;;19.00;99.90;;;;;;4993240;28;20042;-63
2023/09/13 12:11:04;;;;;;;9.55;2.60;;;19.10;99.90;;;;;;4994732;28;20483;-64
2023/09/13 12:13:47;;;;;;;7.65;2.40;;;19.10;99.90;;;;;;4994265;28;20085;-65
2023/09/13 12:16:13;;;;;;;8.60;2.53;;;18.90;99.90;;;;;;4976995;28;20069;-64
2023/09/13 12:18:41;;;;;;;7.43;2.40;;;18.70;99.90;;;;;;4993066;28;20120;-64
2023/09/13 12:21:09;;;;;;;7.72;2.35;;;18.50;99.90;;;;;;4977375;28;20042;-65
2023/09/13 12:23:42;;;;;;;8.38;2.50;;;18.70;99.90;;;;;;4993161;28;20100;-65
2023/09/13 12:26:10;;;;;;;7.90;2.45;;;18.90;99.90;;;;;;4976783;28;20050;-63
2023/09/13 12:28:46;;;;;;;9.13;2.85;;;18.90;99.90;;;;;;4993320;28;20503;-64
2023/09/13 12:31:13;;;;;;;8.10;2.47;;;18.90;99.90;;;;;;4992843;28;20042;-64
2023/09/13 12:33:45;;;;;;;10.10;2.65;;;18.70;99.90;;;;;;4992928;28;20042;-64
2023/09/13 12:36:17;;;;;;;9.52;2.63;;;18.60;99.90;;;;;;4993653;28;20406;-64
2023/09/13 12:38:42;;;;;;;9.93;2.90;;;18.50;99.90;;;;;;4976409;28;20100;-64
2023/09/13 12:41:29;;;;;;;7.35;2.30;;;18.50;99.90;;;;;;4992731;28;20082;-64